Aktualne dane pomiarowe

Uwaga, wersja testowa! Automatyczne pobieranie danych za pomocą narzędzi lub skryptów to umożliwiających jest zabronione.

Dane meteo z obszaru Polski uzyskane na podstawie depesz SYNOP pobieranych co godzinę z NWS. Najedź myszką na symbol przedstawiony w tabeli, aby uzyskać informacje co do jego znaczenia. Prosimy pamiętać, że to testowa wersja strony, która jeszcze nie jest ukończona. Stworzono również jest krótki FAQ dotyczący korzystania z tej podstrony Anomalie temperatury w chwili obecnej odniesione są do okresu referencyjnego 1951-2016. Okres ten będzie później zmieniony na 1981-2010. Kliknij ikonę aby pobrać plik CSV. Kliknij ikonę aby wygenerować mapę synoptyczną dla danego terminu.

Wybierz Datę:    

        

Lesko (12690)

Dane terminowe dla wybranej stacji. Kliknij datę, aby otrzymać dane z tego terminu dla wszystkich stacji.

TemperaturaZachmurzenieWiatrCiśnienieOpadyPogoda
 Data t td wb tx tn tg rh  Nt Nl Cl Cm Ch ws wd g1 g2 wx mslp ppp ch 24h 12h t ww ww w1 w2  
2019-07-04 23:00:00 10.7 7.2 8.5--- 7935.0wx-2wx---1019.8 969.3 -0.6---------
2019-07-04 22:00:00 11.2 7.9 9.1--- 8035.0wx-2wx--21020.1 969.7 -0.2---------
2019-07-04 21:00:00 13.3 6.9 9.5--- 6535.0wx-2wx--21019.9 969.9 0.3---------
2019-07-04 20:00:00 14.3 7.1 10.1--- 6235.0wx-3wx--31019.8 969.9 0.0---------
2019-07-04 19:00:00 16.5 6.0 10.7--- 5035.0wx-1wx--11019.4 969.9 -0.1---------
2019-07-04 18:00:00 18.8 6.6 12.0 21.2 13.4- 4535.0wx-0--1001018.7 969.6 -0.7- 0.012------
2019-07-04 17:00:00 20.4 4.4 11.9--- 3535.0wx-wx2wx--21018.7 969.9 -0.8---------
2019-07-04 16:00:00 20.5 4.5 12.0--- 3535.0wxwxwx3wx---1018.8 970.0 -1.1---------
2019-07-04 15:00:00 21.1 5.8 12.7--- 3735.0wxwxwx3wx-1031019.0 970.3 -1.2---------
2019-07-04 14:00:00 20.6 4.2 11.9--- 3435.0wxwxwx4wx-941019.5 970.7 -1.0---------
2019-07-04 13:00:00 20.4 6.0 12.5--- 3935.0wxwxwx3wx-1031020.0 971.1 -0.7---------
2019-07-04 12:00:00 19.8 4.7 11.7--- 3735.0wxwxwx3wx---1020.5 971.5 -0.2---------
2019-07-04 11:00:00 19.4 5.1 11.7--- 3935.0wxwxwx4wx--41020.8 971.7 0.1---------
2019-07-04 10:00:00 18.9 3.9 11.0--- 3735.0wxwxwx3wx-831021.0 971.8 0.0---------
2019-07-04 09:00:00 18.9 5.7 11.7--- 4235.0wxwxwx2wx--21020.9 971.7 -0.1---------
2019-07-04 08:00:00 17.8 7.8 12.1--- 5235.0wxwxwx1wx--11020.9 971.6 0.1---------
2019-07-04 07:00:00 15.9 8.9 11.7--- 6335.0wxwxwx2wx---1021.5 971.8 0.3---------
2019-07-04 06:00:00 13.4 8.2 10.2 18.6 8.0 7 7135.0wx-2wx--21021.9 971.8 0.3- 0.012----- 12.3
2019-07-04 05:00:00 11.1 8.1 9.2--- 8235.0wx-1wx--11022.0 971.5 0.2---------
2019-07-04 04:00:00 9.5 7.8 8.3--- 8935.0wx-1wx--11022.3 971.5 0.0---------
2019-07-04 03:00:00 8.0 6.5 7.0--- 9035.0wx-1wx--11022.6 971.5 0.1---------
2019-07-04 02:00:00 8.2 6.5 7.1--- 8935.0wx-2wx--21022.3 971.3 0.0---------
2019-07-04 01:00:00 8.8 6.8 7.5--- 8735.0wx-2wx--21022.4 971.5 0.1---------
2019-07-04 00:00:00 9.4 7.2 7.9--- 8635.0wx-2wx--21022.2 971.4 0.6- 0.06------
2019-07-03 23:00:00 10.6 7.3 8.5--- 8035.0wx-1wx--11021.9 971.3 0.9---------
2019-07-03 22:00:00 12.0 6.9 8.9--- 7135.0wx-1wx--11021.8 971.4 1.5---------
2019-07-03 21:00:00 13.3 7.1 9.6--- 6635.0wx-wx1wx--11020.9 970.8 1.4---------
2019-07-03 20:00:00 15.3 6.0 10.1--- 5435.0wx-wx1wx--11020.1 970.4 1.0---------
2019-07-03 19:00:00 17.0 5.9 10.9--- 4835.0wx-wx1wx--11019.3 969.9 0.6---------
2019-07-03 18:00:00 18.6 5.8 11.6 21.5 15.7- 4335.0wxwxwxwx1wx-811018.5 969.4 0.1- 0.012------
2019-07-03 17:00:00 20.0 5.6 12.2--- 3935.0wxwxwxwx2wx--21018.2 969.4 -0.3---------
2019-07-03 16:00:00 20.8 6.7 13.0--- 4035.0wxwxwx2wx--21018.0 969.3 -0.5---------
2019-07-03 15:00:00 20.2 6.2 12.5--- 4035.0wxwxwx2wx-821018.1 969.3 -0.6---------
2019-07-03 14:00:00 21.2 7.8 13.6--- 4235.0wxwxwx3wx--31018.4 969.7 -0.2---------
2019-07-03 13:00:00 20.0 6.0 12.3--- 4035.0wxwxwx4wx-841018.7 969.8 0.2---------
2019-07-03 12:00:00 19.8 6.9 12.6--- 4335.0wxwxwx4wx-1041018.8 969.9 0.5- 0.06------
2019-07-03 11:00:00 18.6 7.7 12.4--- 4935.0wxwxwx5wx101051019.0 969.9 0.6---------
2019-07-03 10:00:00 19.9 8.6 13.4--- 4835.0wxwxwx4wx--41018.5 969.6 0.6---------
2019-07-03 09:00:00 19.9 9.7 13.9--- 5235.0wxwxwx3wx---1018.3 969.4 0.5---------
2019-07-03 08:00:00 18.6 10.9 13.9--- 6135.0wxwxwx3wx--31018.4 969.3 0.3---------
2019-07-03 07:00:00 17.4 11.4 13.6--- 6835.0wxwxwxwx2wx--21018.3 969.0 0.1---------
2019-07-03 06:00:00 15.7 12.1 13.3 22.4 10.9 10 7930.0wx-wx1wx--11018.5 968.9 0.2- 0.012----- 7.0
2019-07-03 05:00:00 14.3 12.5 13.0--- 8920.0wx-wx1wx--11018.8 969.0 0.5---------
2019-07-03 04:00:00 12.2 11.6 11.7--- 9612.0wx-wxwx0---01019.1 968.9 0.7---wx---
2019-07-03 03:00:00 10.9 10.1 10.3--- 955.0wx-wxwx2wx--21019.1 968.7 0.6---wx---
2019-07-03 02:00:00 11.7 10.9 11.1--- 955.0wx-wx2wx--21018.8 968.5 0.4---wx---
2019-07-03 01:00:00 12.3 11.2 11.5--- 935.0wx-2wx--21018.3 968.2 0.1---wx---
2019-07-03 00:00:00 13.6 12.3 12.7--- 9215.0wx-2wx--21018.0 968.1 0.3- 0.06------
7.8 ms

 

Print Friendly, PDF & Email